Time;durP1;ratioP1;P1;durP2;ratioP2;P2;SDS_P1;SDS_P2;PMS_P1;PMS_P2;Temp;Humidity;BMP_temperature;BMP_pressure;BME280_temperature;BME280_humidity;BME280_pressure;Samples;Min_cycle;Max_cycle;Signal;HPM_P1;HPM_P2
2024/03/03 00:02:01;;;;;;;;;;;6.40;99.90;;;-146.41;100.00;57768.22;5041158;28;1387;-69
2024/03/03 00:04:28;;;;;;;;;;;6.30;99.90;;;-146.41;100.00;57768.22;5038789;28;1398;-69
2024/03/03 00:06:56;;;;;;;;;;;6.30;99.90;;;-146.41;100.00;57768.22;5041047;28;1674;-69
2024/03/03 00:09:22;;;;;;;;;;;6.40;99.90;;;-146.41;100.00;57768.22;5044289;28;1910;-69
2024/03/03 00:11:49;;;;;;;;;;;6.40;99.90;;;-146.41;100.00;57768.22;5043367;28;1470;-70
2024/03/03 00:14:16;;;;;;;;;;;6.40;99.90;;;-146.41;100.00;57768.22;5043149;28;1528;-69
2024/03/03 00:16:43;;;;;;;;;;;6.40;99.90;;;-146.41;100.00;57768.22;5039868;28;1282;-69
2024/03/03 00:19:10;;;;;;;;;;;6.40;99.90;;;-146.41;100.00;57768.22;5043318;28;1297;-69
2024/03/03 00:21:37;;;;;;;;;;;6.30;99.90;;;-146.41;100.00;57768.22;5040232;28;1298;-69
2024/03/03 00:24:04;;;;;;;;;;;6.30;99.90;;;-146.41;100.00;57768.22;5043957;28;1382;-69
2024/03/03 00:26:32;;;;;;;;;;;6.20;99.90;;;-146.41;100.00;57768.22;5042599;28;1461;-69
2024/03/03 00:29:00;;;;;;;;;;;6.30;99.90;;;-146.41;100.00;57768.22;5043384;28;1983;-69
2024/03/03 00:31:27;;;;;;;;;;;6.30;99.90;;;-146.41;100.00;57768.22;5042085;28;1505;-69
2024/03/03 00:33:54;;;;;;;;;;;6.30;99.90;;;-146.41;100.00;57768.22;5040030;28;1337;-69
2024/03/03 00:36:22;;;;;;;;;;;6.20;99.90;;;-146.41;100.00;57768.22;5037481;28;1215;-69
2024/03/03 00:38:49;;;;;;;;;;;6.20;99.90;;;-146.41;100.00;57768.22;5039397;28;1188;-69
2024/03/03 00:41:15;;;;;;;;;;;6.00;99.90;;;-146.41;100.00;57768.22;5042184;28;1299;-69
2024/03/03 00:43:42;;;;;;;;;;;5.90;99.90;;;-146.41;100.00;57768.22;5042009;28;2287;-69
2024/03/03 00:46:09;;;;;;;;;;;5.90;99.90;;;-146.41;100.00;57768.22;5041862;28;1218;-69
2024/03/03 00:48:36;;;;;;;;;;;5.90;99.90;;;-146.41;100.00;57768.22;5039159;28;1991;-69
2024/03/03 00:51:03;;;;;;;;;;;6.00;99.90;;;-146.41;100.00;57768.22;5041715;28;1300;-69
2024/03/03 00:53:30;;;;;;;;;;;6.00;99.90;;;-146.41;100.00;57768.22;5039091;28;1183;-69
2024/03/03 00:55:57;;;;;;;;;;;6.00;99.90;;;-146.41;100.00;57768.22;5042421;28;1678;-69
2024/03/03 00:58:24;;;;;;;;;;;5.90;99.90;;;-146.41;100.00;57768.22;5041926;28;1366;-70
2024/03/03 01:00:51;;;;;;;;;;;5.90;99.90;;;-146.41;100.00;57768.22;5044206;28;1373;-70
2024/03/03 01:03:18;;;;;;;;;;;5.90;99.90;;;-146.41;100.00;57768.22;5041118;28;1607;-69
2024/03/03 01:05:45;;;;;;;;;;;5.90;99.90;;;-146.41;100.00;57768.22;5038514;28;1383;-69
2024/03/03 01:08:13;;;;;;;;;;;5.90;99.90;;;-146.41;100.00;57768.22;5044335;28;1329;-69
2024/03/03 01:10:39;;;;;;;;;;;6.00;99.90;;;-146.41;100.00;57768.22;5038518;28;1898;-69
2024/03/03 01:13:06;;;;;;;;;;;6.00;99.90;;;-146.41;100.00;57768.22;5036685;28;1294;-68
2024/03/03 01:15:33;;;;;;;;;;;5.90;99.90;;;-146.41;100.00;57768.22;5043879;28;1348;-69
2024/03/03 01:17:59;;;;;;;;;;;5.90;99.90;;;-146.41;100.00;57768.22;5041965;28;1353;-69
2024/03/03 01:20:26;;;;;;;;;;;5.90;99.90;;;-146.41;100.00;57768.22;5041912;28;1354;-69
2024/03/03 01:22:53;;;;;;;;;;;5.90;99.90;;;-146.41;100.00;57768.22;5040735;28;1675;-69
2024/03/03 01:25:20;;;;;;;;;;;5.90;99.90;;;-146.41;100.00;57768.22;5043627;28;1334;-69
2024/03/03 01:27:47;;;;;;;;;;;6.00;99.90;;;-146.41;100.00;57768.22;5038437;28;1278;-69
2024/03/03 01:30:14;;;;;;;;;;;5.90;99.90;;;-146.41;100.00;57768.22;5040512;28;1971;-69
2024/03/03 01:32:41;;;;;;;;;;;5.90;99.90;;;-146.41;100.00;57768.22;5039213;28;1338;-69
2024/03/03 01:35:08;;;;;;;;;;;5.90;99.90;;;-146.41;100.00;57768.22;5038133;28;1312;-69
2024/03/03 01:37:35;;;;;;;;;;;5.80;99.90;;;-146.41;100.00;57768.22;5039798;28;1301;-69
2024/03/03 01:40:04;;;;;;;;;;;5.90;99.90;;;-146.41;100.00;57768.22;5040234;28;1942;-69
2024/03/03 01:42:31;;;;;;;;;;;6.00;99.90;;;-146.41;100.00;57768.22;5041897;28;1241;-69
2024/03/03 01:44:58;;;;;;;;;;;6.00;99.90;;;-146.41;100.00;57768.22;5041071;28;1299;-69
2024/03/03 01:47:25;;;;;;;;;;;6.00;99.90;;;-146.41;100.00;57768.22;5039475;28;1282;-69
2024/03/03 01:49:54;;;;;;;;;;;6.00;99.90;;;-146.41;100.00;57768.22;5039116;28;2008;-69
2024/03/03 01:52:21;;;;;;;;;;;5.90;99.90;;;-146.41;100.00;57768.22;5058206;28;1499;-69
2024/03/03 01:54:48;;;;;;;;;;;5.90;99.90;;;-146.41;100.00;57768.22;5038893;28;1496;-69
2024/03/03 01:57:19;;;;;;;;;;;5.90;99.90;;;-146.41;100.00;57768.22;5037540;28;1458;-69
2024/03/03 01:59:46;;;;;;;;;;;5.80;99.90;;;-146.41;100.00;57768.22;5040192;28;1443;-69
2024/03/03 02:02:13;;;;;;;;;;;5.70;99.90;;;-146.41;100.00;57768.22;5040594;28;1521;-69
2024/03/03 02:04:40;;;;;;;;;;;5.80;99.90;;;-146.41;100.00;57768.22;5037142;28;1208;-69
2024/03/03 02:07:08;;;;;;;;;;;5.80;99.90;;;-146.41;100.00;57768.22;5038248;28;1142;-69
2024/03/03 02:09:35;;;;;;;;;;;5.90;99.90;;;-146.41;100.00;57768.22;5038791;28;2017;-69
2024/03/03 02:12:03;;;;;;;;;;;5.90;99.90;;;-146.41;100.00;57768.22;5041284;28;1316;-69
2024/03/03 02:14:29;;;;;;;;;;;5.90;99.90;;;-146.41;100.00;57768.22;5053955;28;1333;-69
2024/03/03 02:16:56;;;;;;;;;;;5.80;99.90;;;-146.41;100.00;57768.22;5039777;28;1727;-69
2024/03/03 02:19:23;;;;;;;;;;;5.80;99.90;;;-146.41;100.00;57768.22;5040903;28;1079;-69
2024/03/03 02:21:50;;;;;;;;;;;5.60;99.90;;;-146.41;100.00;57768.22;5042218;28;1400;-69
2024/03/03 02:24:17;;;;;;;;;;;5.60;99.90;;;-146.41;100.00;57768.22;5039234;28;997;-69
2024/03/03 02:26:44;;;;;;;;;;;5.60;99.90;;;-146.41;100.00;57768.22;5041546;28;1272;-69
2024/03/03 02:29:12;;;;;;;;;;;5.80;99.90;;;-146.41;100.00;57768.22;5019900;28;2282;-69
2024/03/03 02:31:39;;;;;;;;;;;5.90;99.90;;;-146.41;100.00;57768.22;5035821;28;1331;-69
2024/03/03 02:34:06;;;;;;;;;;;6.10;99.90;;;-146.41;100.00;57768.22;5047681;28;1051;-69
2024/03/03 02:36:33;;;;;;;;;;;6.30;99.90;;;-146.41;100.00;57768.22;5038390;28;1142;-69
2024/03/03 02:39:00;;;;;;;;;;;6.50;99.90;;;-146.41;100.00;57768.22;5038081;28;1518;-69
2024/03/03 02:41:27;;;;;;;;;;;6.50;99.90;;;-146.41;100.00;57768.22;5036356;28;1335;-69
2024/03/03 02:43:54;;;;;;;;;;;6.50;99.90;;;-146.41;100.00;57768.22;5039767;28;1006;-69
2024/03/03 02:46:20;;;;;;;;;;;6.60;99.90;;;-146.41;100.00;57768.22;5037097;28;1229;-69
2024/03/03 02:48:48;;;;;;;;;;;6.60;99.90;;;-146.41;100.00;57768.22;5052145;28;1910;-69
2024/03/03 02:51:15;;;;;;;;;;;6.60;99.90;;;-146.41;100.00;57768.22;5040760;28;1284;-69
2024/03/03 02:53:41;;;;;;;;;;;6.60;99.90;;;-146.41;100.00;57768.22;5037190;28;1366;-69
2024/03/03 02:56:08;;;;;;;;;;;6.60;99.90;;;-146.41;100.00;57768.22;5043018;28;1130;-69
2024/03/03 02:58:35;;;;;;;;;;;6.60;99.90;;;-146.41;100.00;57768.22;5037229;28;1265;-69
2024/03/03 03:01:02;;;;;;;;;;;6.60;99.90;;;-146.41;100.00;57768.22;5041969;28;1347;-69
2024/03/03 03:03:31;;;;;;;;;;;6.60;99.90;;;-146.41;100.00;57768.22;5048614;28;1087;-69
2024/03/03 03:05:58;;;;;;;;;;;6.70;99.90;;;-146.41;100.00;57768.22;5039376;28;1305;-69
2024/03/03 03:08:25;;;;;;;;;;;6.70;99.90;;;-146.41;100.00;57768.22;5037451;28;1359;-69
2024/03/03 03:10:51;;;;;;;;;;;6.60;99.90;;;-146.41;100.00;57768.22;5051355;28;1914;-68
2024/03/03 03:13:19;;;;;;;;;;;6.60;99.90;;;-146.41;100.00;57768.22;5035268;28;1128;-68
2024/03/03 03:15:46;;;;;;;;;;;6.60;99.90;;;-146.41;100.00;57768.22;5036438;28;1150;-69
2024/03/03 03:18:12;;;;;;;;;;;6.60;99.90;;;-146.41;100.00;57768.22;5038953;28;1180;-69
2024/03/03 03:20:39;;;;;;;;;;;6.60;99.90;;;-146.41;100.00;57768.22;5053804;28;1300;-70
2024/03/03 03:23:07;;;;;;;;;;;6.60;99.90;;;-146.41;100.00;57768.22;5039015;28;1171;-68
2024/03/03 03:25:33;;;;;;;;;;;6.70;99.90;;;-146.41;100.00;57768.22;5037344;28;1273;-69
2024/03/03 03:28:00;;;;;;;;;;;6.60;99.90;;;-146.41;100.00;57768.22;5038253;28;1199;-68
2024/03/03 03:30:27;;;;;;;;;;;6.60;99.90;;;-146.41;100.00;57768.22;5034646;28;1990;-68
2024/03/03 03:32:54;;;;;;;;;;;6.60;99.90;;;-146.41;100.00;57768.22;5036312;28;993;-69
2024/03/03 03:35:22;;;;;;;;;;;6.60;99.90;;;-146.41;100.00;57768.22;5036540;28;1068;-69
2024/03/03 03:37:49;;;;;;;;;;;6.60;99.90;;;-146.41;100.00;57768.22;5037453;28;1069;-69
2024/03/03 03:40:16;;;;;;;;;;;6.60;99.90;;;-146.41;100.00;57768.22;5032437;28;1362;-69
2024/03/03 03:42:43;;;;;;;;;;;6.60;99.90;;;-146.41;100.00;57768.22;5036897;28;1356;-69
2024/03/03 03:45:10;;;;;;;;;;;6.60;99.90;;;-146.41;100.00;57768.22;5038324;28;1247;-68
2024/03/03 03:47:37;;;;;;;;;;;6.70;99.90;;;-146.41;100.00;57768.22;5039344;28;1154;-69
2024/03/03 03:50:04;;;;;;;;;;;6.70;99.90;;;-146.41;100.00;57768.22;5037456;28;1977;-69
2024/03/03 03:52:31;;;;;;;;;;;6.70;99.90;;;-146.41;100.00;57768.22;5015743;28;1216;-69
2024/03/03 03:54:58;;;;;;;;;;;6.70;99.90;;;-146.41;100.00;57768.22;5036751;28;1244;-69
2024/03/03 03:57:25;;;;;;;;;;;6.60;99.90;;;-146.41;100.00;57768.22;5036904;28;1126;-69
2024/03/03 03:59:52;;;;;;;;;;;6.60;99.90;;;-146.41;100.00;57768.22;5037899;28;1114;-69
2024/03/03 04:02:18;;;;;;;;;;;6.60;99.90;;;-146.41;100.00;57768.22;5036973;28;1367;-69
2024/03/03 04:04:45;;;;;;;;;;;6.60;99.90;;;-146.41;100.00;57768.22;5035370;28;1039;-69
2024/03/03 04:07:12;;;;;;;;;;;6.60;99.90;;;-146.41;100.00;57768.22;5044039;28;1046;-68
2024/03/03 04:09:40;;;;;;;;;;;6.70;99.90;;;-146.41;100.00;57768.22;5036312;28;1995;-69
2024/03/03 04:12:08;;;;;;;;;;;6.70;99.90;;;-146.41;100.00;57768.22;5038430;28;1470;-69
2024/03/03 04:14:34;;;;;;;;;;;6.60;99.90;;;-146.41;100.00;57768.22;5035100;28;1191;-69
2024/03/03 04:17:01;;;;;;;;;;;6.60;99.90;;;-146.41;100.00;57768.22;5038914;28;1153;-69
2024/03/03 04:19:28;;;;;;;;;;;6.60;99.90;;;-146.41;100.00;57768.22;5049990;28;1064;-69
2024/03/03 04:21:55;;;;;;;;;;;6.50;99.90;;;-146.41;100.00;57768.22;5037234;28;1473;-68
2024/03/03 04:24:22;;;;;;;;;;;6.40;99.90;;;-146.41;100.00;57768.22;5041103;28;1220;-69
2024/03/03 04:26:48;;;;;;;;;;;6.40;99.90;;;-146.41;100.00;57768.22;5041006;28;1030;-69
2024/03/03 04:29:15;;;;;;;;;;;6.30;99.90;;;-146.41;100.00;57768.22;5040607;28;1981;-69
2024/03/03 04:31:43;;;;;;;;;;;6.30;99.90;;;-146.41;100.00;57768.22;5040209;28;1276;-69
2024/03/03 04:34:10;;;;;;;;;;;6.20;99.90;;;-146.41;100.00;57768.22;5038297;28;1129;-68
2024/03/03 04:36:37;;;;;;;;;;;6.30;99.90;;;-146.41;100.00;57768.22;5038594;28;1212;-69
2024/03/03 04:39:04;;;;;;;;;;;6.30;99.90;;;-146.41;100.00;57768.22;5041738;28;1288;-69
2024/03/03 04:41:31;;;;;;;;;;;6.30;99.90;;;-146.41;100.00;57768.22;5038596;28;1451;-68
2024/03/03 04:43:58;;;;;;;;;;;6.30;99.90;;;-146.41;100.00;57768.22;5039315;28;1032;-68
2024/03/03 04:46:25;;;;;;;;;;;6.30;99.90;;;-146.41;100.00;57768.22;5039842;28;1335;-69
2024/03/03 04:48:52;;;;;;;;;;;6.20;99.90;;;-146.41;100.00;57768.22;5040132;28;1257;-69
2024/03/03 04:51:19;;;;;;;;;;;6.20;99.90;;;-146.41;100.00;57768.22;5040318;28;1910;-69
2024/03/03 04:53:46;;;;;;;;;;;6.30;99.90;;;-146.41;100.00;57768.22;5038622;28;1007;-68
2024/03/03 04:56:13;;;;;;;;;;;6.30;99.90;;;-146.41;100.00;57768.22;5043267;28;1081;-68
2024/03/03 04:58:39;;;;;;;;;;;6.40;99.90;;;-146.41;100.00;57768.22;5040953;28;1140;-69
2024/03/03 05:01:06;;;;;;;;;;;6.40;99.90;;;-146.41;100.00;57768.22;5040470;28;1370;-69
2024/03/03 05:03:33;;;;;;;;;;;6.40;99.90;;;-146.41;100.00;57768.22;5038122;28;1438;-68
2024/03/03 05:06:00;;;;;;;;;;;6.40;99.90;;;-146.41;100.00;57768.22;5039124;28;1065;-69
2024/03/03 05:08:27;;;;;;;;;;;6.40;99.90;;;-146.41;100.00;57768.22;5040807;28;1173;-68
2024/03/03 05:10:54;;;;;;;;;;;6.50;99.90;;;-146.41;100.00;57768.22;5037708;28;1898;-68
2024/03/03 05:13:21;;;;;;;;;;;6.50;99.90;;;-146.41;100.00;57768.22;5037787;28;1255;-68
2024/03/03 05:15:47;;;;;;;;;;;6.60;99.90;;;-146.41;100.00;57768.22;5040068;28;1081;-69
2024/03/03 05:18:14;;;;;;;;;;;6.60;99.90;;;-146.41;100.00;57768.22;5041819;28;1241;-69
2024/03/03 05:20:41;;;;;;;;;;;6.60;99.90;;;-146.41;100.00;57768.22;5028903;28;1253;-69
2024/03/03 05:23:08;;;;;;;;;;;6.60;99.90;;;-146.41;100.00;57768.22;5039254;28;1065;-69
2024/03/03 05:25:35;;;;;;;;;;;6.60;99.90;;;-146.41;100.00;57768.22;5037869;28;1341;-69
2024/03/03 05:28:03;;;;;;;;;;;6.70;99.90;;;-146.41;100.00;57768.22;5042926;28;1149;-69
2024/03/03 05:30:36;;;;;;;;;;;6.60;99.90;;;-146.41;100.00;57768.22;5040063;28;1902;-69
2024/03/03 05:33:06;;;;;;;;;;;6.70;99.90;;;-146.41;100.00;57768.22;5036241;28;1246;-69
2024/03/03 05:35:33;;;;;;;;;;;6.60;99.90;;;-146.41;100.00;57768.22;5038493;28;1213;-69
2024/03/03 05:38:03;;;;;;;;;;;6.60;99.90;;;-146.41;100.00;57768.22;5039504;28;1107;-68
2024/03/03 05:40:30;;;;;;;;;;;6.60;99.90;;;-146.41;100.00;57768.22;5039401;28;1320;-69
2024/03/03 05:42:56;;;;;;;;;;;6.50;99.90;;;-146.41;100.00;57768.22;5037314;28;1355;-69
2024/03/03 05:45:23;;;;;;;;;;;6.50;99.90;;;-146.41;100.00;57768.22;5041510;28;1084;-69
2024/03/03 05:47:50;;;;;;;;;;;6.50;99.90;;;-146.41;100.00;57768.22;5038494;28;1105;-69
2024/03/03 05:50:17;;;;;;;;;;;6.50;99.90;;;-146.41;100.00;57768.22;5039879;28;1910;-68
2024/03/03 05:52:44;;;;;;;;;;;6.60;99.90;;;-146.41;100.00;57768.22;5042111;28;1180;-69
2024/03/03 05:55:11;;;;;;;;;;;6.60;99.90;;;-146.41;100.00;57768.22;5038301;28;1278;-69
2024/03/03 05:57:38;;;;;;;;;;;6.70;99.90;;;-146.41;100.00;57768.22;5036328;28;1074;-69
2024/03/03 06:00:05;;;;;;;;;;;6.80;99.90;;;-146.41;100.00;57768.22;5039222;28;1292;-69
2024/03/03 06:02:32;;;;;;;;;;;6.80;99.90;;;-146.41;100.00;57768.22;5037915;28;1260;-69
2024/03/03 06:04:59;;;;;;;;;;;6.90;99.90;;;-146.41;100.00;57768.22;5036014;28;1080;-69
2024/03/03 06:07:26;;;;;;;;;;;6.90;99.90;;;-146.41;100.00;57768.22;5038173;28;1062;-68
2024/03/03 06:09:53;;;;;;;;;;;7.00;99.90;;;-146.41;100.00;57768.22;5036620;28;1985;-69
2024/03/03 06:12:19;;;;;;;;;;;7.00;99.90;;;-146.41;100.00;57768.22;5037976;28;1244;-69
2024/03/03 06:14:47;;;;;;;;;;;7.00;99.90;;;-146.41;100.00;57768.22;5041507;28;1234;-69
2024/03/03 06:17:15;;;;;;;;;;;7.00;99.90;;;-146.41;100.00;57768.22;5041080;28;1401;-69
2024/03/03 06:19:41;;;;;;;;;;;7.00;99.90;;;-146.41;100.00;57768.22;5038979;28;1415;-69
2024/03/03 06:22:08;;;;;;;;;;;7.00;99.90;;;-146.41;100.00;57768.22;5038351;28;1280;-69
2024/03/03 06:24:36;;;;;;;;;;;7.00;99.90;;;-146.41;100.00;57768.22;5036419;28;1015;-69
2024/03/03 06:27:03;;;;;;;;;;;7.00;99.90;;;-146.41;100.00;57768.22;5042131;28;1059;-68
2024/03/03 06:29:29;;;;;;;;;;;6.90;99.90;;;-146.41;100.00;57768.22;5037334;28;1070;-69
2024/03/03 06:31:56;;;;;;;;;;;6.80;99.90;;;-146.41;100.00;57768.22;5038688;28;1957;-69
2024/03/03 06:34:23;;;;;;;;;;;6.80;99.90;;;-146.41;100.00;57768.22;5037076;28;1562;-69
2024/03/03 06:36:50;;;;;;;;;;;6.70;99.90;;;-146.41;100.00;57768.22;5033968;28;1068;-69
2024/03/03 06:39:17;;;;;;;;;;;6.80;99.90;;;-146.41;100.00;57768.22;5033265;28;1112;-69
2024/03/03 06:41:44;;;;;;;;;;;6.80;99.90;;;-146.41;100.00;57768.22;5037927;28;1300;-69
2024/03/03 06:44:16;;;;;;;;;;;6.90;99.90;;;-146.41;100.00;57768.22;5038568;28;1248;-69
2024/03/03 06:46:44;;;;;;;;;;;6.90;99.90;;;-146.41;100.00;57768.22;5037535;28;1029;-69
2024/03/03 06:49:12;;;;;;;;;;;6.90;99.90;;;-146.41;100.00;57768.22;5038772;28;1322;-69
2024/03/03 06:51:39;;;;;;;;;;;6.90;99.90;;;-146.41;100.00;57768.22;5037444;28;2357;-69
2024/03/03 06:54:06;;;;;;;;;;;6.90;99.90;;;-146.41;100.00;57768.22;5038864;28;1138;-69
2024/03/03 06:56:33;;;;;;;;;;;6.90;99.90;;;-146.41;100.00;57768.22;5039953;28;1285;-69
2024/03/03 06:59:02;;;;;;;;;;;6.90;99.90;;;-146.41;100.00;57768.22;5038186;28;1040;-69
2024/03/03 07:01:30;;;;;;;;;;;6.90;99.90;;;-146.41;100.00;57768.22;5037529;28;1350;-68
2024/03/03 07:04:19;;;;;;;;;;;6.80;99.90;;;-146.41;100.00;57768.22;5037319;28;1241;-69
2024/03/03 07:06:46;;;;;;;;;;;6.80;99.90;;;-146.41;100.00;57768.22;5035245;28;1156;-69
2024/03/03 07:09:13;;;;;;;;;;;6.80;99.90;;;-146.41;100.00;57768.22;5040186;28;1087;-69
2024/03/03 07:11:40;;;;;;;;;;;6.70;99.90;;;-146.41;100.00;57768.22;5037161;28;1987;-69
2024/03/03 07:14:07;;;;;;;;;;;6.70;99.90;;;-146.41;100.00;57768.22;5037023;28;1209;-69
2024/03/03 07:16:33;;;;;;;;;;;6.70;99.90;;;-146.41;100.00;57768.22;5037482;28;1072;-69
2024/03/03 07:19:00;;;;;;;;;;;6.70;99.90;;;-146.41;100.00;57768.22;5037015;28;1193;-69
2024/03/03 07:21:28;;;;;;;;;;;6.70;99.90;;;-146.41;100.00;57768.22;5036675;28;1410;-69
2024/03/03 07:23:54;;;;;;;;;;;6.50;99.90;;;-146.41;100.00;57768.22;5038091;28;1056;-69
2024/03/03 07:26:22;;;;;;;;;;;6.60;99.90;;;-146.41;100.00;57768.22;5036986;28;1270;-69
2024/03/03 07:28:51;;;;;;;;;;;6.60;99.90;;;-146.41;100.00;57768.22;5052295;28;1098;-69
2024/03/03 07:31:18;;;;;;;;;;;6.60;99.90;;;-146.41;100.00;57768.22;5038644;28;1910;-68
2024/03/03 07:33:45;;;;;;;;;;;6.60;99.90;;;-146.41;100.00;57768.22;5037056;28;1212;-69
2024/03/03 07:36:12;;;;;;;;;;;6.60;99.90;;;-146.41;100.00;57768.22;5039219;28;1227;-69
2024/03/03 07:38:39;;;;;;;;;;;6.60;99.90;;;-146.41;100.00;57768.22;5053171;28;1212;-69
2024/03/03 07:41:06;;;;;;;;;;;6.60;99.90;;;-146.41;100.00;57768.22;5039497;28;1249;-68
2024/03/03 07:43:33;;;;;;;;;;;6.70;99.90;;;-146.41;100.00;57768.22;5036485;28;1396;-69
2024/03/03 07:45:59;;;;;;;;;;;6.70;99.90;;;-146.41;100.00;57768.22;5034863;28;1464;-69
2024/03/03 07:48:26;;;;;;;;;;;6.80;99.90;;;-146.41;100.00;57768.22;5035911;28;971;-69
2024/03/03 07:50:54;;;;;;;;;;;6.80;99.90;;;-146.41;100.00;57768.22;5039732;28;2052;-69
2024/03/03 07:53:21;;;;;;;;;;;6.80;99.90;;;-146.41;100.00;57768.22;5037030;28;1280;-69
2024/03/03 07:55:48;;;;;;;;;;;6.90;99.90;;;-146.41;100.00;57768.22;5037946;28;1457;-69
2024/03/03 07:58:16;;;;;;;;;;;6.90;99.90;;;-146.41;100.00;57768.22;5039332;28;1451;-69
2024/03/03 08:00:44;;;;;;;;;;;7.00;99.90;;;-146.41;100.00;57768.22;5040612;28;1465;-68
2024/03/03 08:03:11;;;;;;;;;;;7.00;99.90;;;-146.41;100.00;57768.22;5038818;28;1082;-69
2024/03/03 08:05:38;;;;;;;;;;;7.10;99.90;;;-146.41;100.00;57768.22;5039783;28;1445;-69
2024/03/03 08:08:05;;;;;;;;;;;7.30;99.90;;;-146.41;100.00;57768.22;5042184;28;1144;-69
2024/03/03 08:10:33;;;;;;;;;;;7.40;99.90;;;-146.41;100.00;57768.22;5042415;28;1934;-69
2024/03/03 08:12:59;;;;;;;;;;;7.50;99.90;;;-146.41;100.00;57768.22;5035541;28;1183;-69
2024/03/03 08:15:27;;;;;;;;;;;7.60;99.90;;;-146.41;100.00;57768.22;5053559;28;1226;-69
2024/03/03 08:17:54;;;;;;;;;;;7.80;99.90;;;-146.41;100.00;57768.22;5042517;28;1228;-69
2024/03/03 08:20:27;;;;;;;;;;;8.00;99.90;;;-146.41;100.00;57768.22;5044615;28;1319;-69
2024/03/03 08:22:54;;;;;;;;;;;8.40;99.90;;;-146.41;100.00;57768.22;5037714;28;1009;-69
2024/03/03 08:25:23;;;;;;;;;;;8.90;99.90;;;-146.41;100.00;57768.22;5057143;28;1129;-69
2024/03/03 08:27:50;;;;;;;;;;;9.30;99.90;;;-146.41;100.00;57768.22;5040237;28;1072;-69
2024/03/03 08:30:18;;;;;;;;;;;9.90;99.90;;;-146.41;100.00;57768.22;5041141;28;1961;-69
2024/03/03 08:32:44;;;;;;;;;;;10.30;99.90;;;-146.41;100.00;57768.22;5040132;28;1072;-69
2024/03/03 08:35:11;;;;;;;;;;;10.60;99.90;;;-146.41;100.00;57768.22;5039716;28;1240;-69
2024/03/03 08:37:38;;;;;;;;;;;10.80;99.90;;;-146.41;100.00;57768.22;5040632;28;979;-69
2024/03/03 08:40:08;;;;;;;;;;;11.20;99.90;;;-146.41;100.00;57768.22;5039220;28;1371;-69
2024/03/03 08:42:36;;;;;;;;;;;11.30;99.90;;;-146.41;100.00;57768.22;5042328;28;1368;-69
2024/03/03 08:45:06;;;;;;;;;;;11.10;99.90;;;-146.41;100.00;57768.22;5040928;28;1036;-69
2024/03/03 08:47:33;;;;;;;;;;;11.00;99.90;;;-146.41;100.00;57768.22;5040995;28;1098;-69
2024/03/03 08:50:00;;;;;;;;;;;10.60;99.90;;;-146.41;100.00;57768.22;5039308;28;1193;-68
2024/03/03 08:52:27;;;;;;;;;;;10.70;99.90;;;-146.41;100.00;57768.22;5038322;28;1922;-69
2024/03/03 08:54:54;;;;;;;;;;;10.40;99.90;;;-146.41;100.00;57768.22;5054192;28;1193;-69
2024/03/03 08:57:23;;;;;;;;;;;10.50;99.90;;;-146.41;100.00;57768.22;5041905;28;1119;-69
2024/03/03 08:59:51;;;;;;;;;;;10.30;99.90;;;-146.41;100.00;57768.22;5040848;28;1086;-69
2024/03/03 09:02:17;;;;;;;;;;;10.50;99.90;;;-146.41;100.00;57768.22;5041054;28;1316;-69
2024/03/03 09:04:44;;;;;;;;;;;10.70;99.90;;;-146.41;100.00;57768.22;5035669;28;1094;-69
2024/03/03 09:07:11;;;;;;;;;;;10.90;99.90;;;-146.41;100.00;57768.22;5054100;28;1136;-69
2024/03/03 09:09:38;;;;;;;;;;;10.90;99.90;;;-146.41;100.00;57768.22;5039882;28;1256;-69
2024/03/03 09:12:08;;;;;;;;;;;10.90;99.90;;;-146.41;100.00;57768.22;5034480;28;1898;-69
2024/03/03 09:14:36;;;;;;;;;;;11.20;99.90;;;-146.41;100.00;57768.22;5038185;28;1242;-69
2024/03/03 09:17:03;;;;;;;;;;;11.10;99.90;;;-146.41;100.00;57768.22;5040076;28;1000;-69
2024/03/03 09:19:29;;;;;;;;;;;11.30;99.90;;;-146.41;100.00;57768.22;5040403;28;1493;-69
2024/03/03 09:21:56;;;;;;;;;;;11.30;99.90;;;-146.41;100.00;57768.22;5056335;28;1402;-69
2024/03/03 09:24:25;;;;;;;;;;;11.30;99.90;;;-146.41;100.00;57768.22;5040510;28;1076;-69
2024/03/03 09:26:52;;;;;;;;;;;11.30;99.90;;;-146.41;100.00;57768.22;5043276;28;1123;-69
2024/03/03 09:29:19;;;;;;;;;;;11.30;99.90;;;-146.41;100.00;57768.22;5040727;28;1161;-69
2024/03/03 09:31:53;;;;;;;;;;;11.20;99.90;;;-146.41;100.00;57768.22;5037824;28;1991;-69
2024/03/03 09:34:20;;;;;;;;;;;11.00;99.90;;;-146.41;100.00;57768.22;5055644;28;1628;-69
2024/03/03 09:36:48;;;;;;;;;;;11.10;99.90;;;-146.41;100.00;57768.22;5039170;28;1518;-69
2024/03/03 09:39:14;;;;;;;;;;;11.10;99.90;;;-146.41;100.00;57768.22;5042584;28;1297;-69
2024/03/03 09:41:43;;;;;;;;;;;11.00;99.90;;;-146.41;100.00;57768.22;5036486;28;1402;-69
2024/03/03 09:44:16;;;;;;;;;;;10.80;99.90;;;-146.41;100.00;57768.22;5039024;28;1448;-69
2024/03/03 09:46:44;;;;;;;;;;;10.80;99.90;;;-146.41;100.00;57768.22;5038207;28;1067;-69
2024/03/03 09:49:18;;;;;;;;;;;10.80;99.90;;;-146.41;100.00;57768.22;5040082;28;1531;-69
2024/03/03 09:51:47;;;;;;;;;;;;;;;-146.41;100.00;57768.22;5038863;28;2067;-69
2024/03/03 09:54:18;;;;;;;;;;;10.60;99.90;;;-146.41;100.00;57768.22;5036567;28;1383;-69
2024/03/03 09:56:47;;;;;;;;;;;10.40;99.90;;;-146.41;100.00;57768.22;5039833;28;1599;-69
2024/03/03 09:59:15;;;;;;;;;;;10.50;99.90;;;-146.41;100.00;57768.22;5035454;28;1458;-69
2024/03/03 10:01:50;;;;;;;;;;;10.50;99.90;;;-146.41;100.00;57768.22;5039445;28;1363;-69
2024/03/03 10:04:17;;;;;;;;;;;10.50;99.90;;;-146.41;100.00;57768.22;5037347;28;1638;-69
2024/03/03 10:06:44;;;;;;;;;;;10.50;99.90;;;-146.41;100.00;57768.22;5038028;28;1558;-69
2024/03/03 10:09:14;;;;;;;;;;;10.60;99.90;;;-146.41;100.00;57768.22;5039674;28;1469;-69
2024/03/03 10:11:41;;;;;;;;;;;10.70;99.90;;;-146.41;100.00;57768.22;5055288;28;1991;-69
2024/03/03 10:14:09;;;;;;;;;;;10.70;99.90;;;-146.41;100.00;57768.22;5036320;28;1446;-69
2024/03/03 10:16:36;;;;;;;;;;;10.80;99.90;;;-146.41;100.00;57768.22;5034457;28;1416;-69
2024/03/03 10:19:04;;;;;;;;;;;10.70;99.90;;;-146.41;100.00;57768.22;5037185;28;1396;-69
2024/03/03 10:21:36;;;;;;;;;;;10.60;99.90;;;-146.41;100.00;57768.22;5042698;28;1533;-69
2024/03/03 10:24:22;;;;;;;;;;;10.60;99.90;;;-146.41;100.00;57768.22;5035000;28;1450;-69
2024/03/03 10:26:50;;;;;;;;;;;10.60;99.90;;;-146.41;100.00;57768.22;5037995;28;1376;-69
2024/03/03 10:29:18;;;;;;;;;;;10.60;99.90;;;-146.41;100.00;57768.22;5053498;28;1435;-69
2024/03/03 10:31:48;;;;;;;;;;;10.70;99.90;;;-146.41;100.00;57768.22;5037939;28;1930;-68
2024/03/03 10:34:15;;;;;;;;;;;10.80;99.90;;;-146.41;100.00;57768.22;5039492;28;1507;-69
2024/03/03 10:36:42;;;;;;;;;;;10.90;99.90;;;-146.41;100.00;57768.22;5042520;28;1413;-69
2024/03/03 10:39:11;;;;;;;;;;;11.00;99.90;;;-146.41;100.00;57768.22;5041714;28;1478;-69
2024/03/03 10:41:38;;;;;;;;;;;10.90;99.90;;;-146.41;100.00;57768.22;5039545;28;1487;-69
2024/03/03 10:44:07;;;;;;;;;;;11.00;99.90;;;-146.41;100.00;57768.22;5038244;28;1286;-69
2024/03/03 10:46:35;;;;;;;;;;;11.00;99.90;;;-146.41;100.00;57768.22;5034277;28;1463;-69
2024/03/03 10:49:02;;;;;;;;;;;11.00;99.90;;;-146.41;100.00;57768.22;5054612;28;1524;-69
2024/03/03 10:51:30;;;;;;;;;;;10.90;99.90;;;-146.41;100.00;57768.22;5043587;28;1902;-69
2024/03/03 10:53:59;;;;;;;;;;;10.90;99.90;;;-146.41;100.00;57768.22;5039488;28;1400;-69
2024/03/03 10:56:26;;;;;;;;;;;11.00;99.90;;;-146.41;100.00;57768.22;5040650;28;1437;-69
2024/03/03 10:58:54;;;;;;;;;;;11.00;99.90;;;-146.41;100.00;57768.22;5035104;28;1567;-69
2024/03/03 11:01:21;;;;;;;;;;;11.10;99.90;;;-146.41;100.00;57768.22;5038504;28;1395;-69
2024/03/03 11:03:50;;;;;;;;;;;11.10;99.90;;;-146.41;100.00;57768.22;5035505;28;1599;-69
2024/03/03 11:06:17;;;;;;;;;;;11.00;99.90;;;-146.41;100.00;57768.22;5037363;28;1378;-69
2024/03/03 11:08:51;;;;;;;;;;;11.00;99.90;;;-146.41;100.00;57768.22;5038898;28;1407;-69